sensor_id;sensor_type;location;lat;lon;timestamp;pressure;altitude;pressure_sealevel;temperature;humidity
72855;BME280;60991;51.278;22.550;2022-09-09T00:01:06;98983.66;;;15.49;68.53
72855;BME280;60991;51.278;22.550;2022-09-09T00:02:38;98982.88;;;15.44;68.71
72855;BME280;60991;51.278;22.550;2022-09-09T00:04:22;98987.69;;;15.47;68.81
72855;BME280;60991;51.278;22.550;2022-09-09T00:07:05;98980.47;;;15.42;69.01
72855;BME280;60991;51.278;22.550;2022-09-09T00:08:18;98970.84;;;15.41;69.22
72855;BME280;60991;51.278;22.550;2022-09-09T00:10:29;98971.44;;;15.38;68.94
72855;BME280;60991;51.278;22.550;2022-09-09T00:13:41;98972.53;;;15.37;69.30
72855;BME280;60991;51.278;22.550;2022-09-09T00:15:21;98973.53;;;15.41;69.61
72855;BME280;60991;51.278;22.550;2022-09-09T00:16:56;98968.19;;;15.41;69.32
72855;BME280;60991;51.278;22.550;2022-09-09T00:18:44;98971.16;;;15.40;69.22
72855;BME280;60991;51.278;22.550;2022-09-09T00:23:28;98960.78;;;15.33;69.48
72855;BME280;60991;51.278;22.550;2022-09-09T00:25:11;98957.81;;;15.35;69.20
72855;BME280;60991;51.278;22.550;2022-09-09T00:26:54;98950.38;;;15.27;69.48
72855;BME280;60991;51.278;22.550;2022-09-09T00:28:27;98955.97;;;15.30;69.42
72855;BME280;60991;51.278;22.550;2022-09-09T00:30:20;98953.00;;;15.37;69.41
72855;BME280;60991;51.278;22.550;2022-09-09T00:31:57;98949.84;;;15.30;69.50
72855;BME280;60991;51.278;22.550;2022-09-09T00:33:30;98958.69;;;15.25;69.81
72855;BME280;60991;51.278;22.550;2022-09-09T00:36:45;98953.38;;;15.20;69.77
72855;BME280;60991;51.278;22.550;2022-09-09T00:38:30;98949.41;;;15.12;70.38
72855;BME280;60991;51.278;22.550;2022-09-09T00:40:11;98953.69;;;15.13;70.16
72855;BME280;60991;51.278;22.550;2022-09-09T00:42:11;98958.81;;;15.05;70.24
72855;BME280;60991;51.278;22.550;2022-09-09T00:43:49;98959.38;;;15.02;70.46
72855;BME280;60991;51.278;22.550;2022-09-09T00:47:38;98961.25;;;15.01;70.60
72855;BME280;60991;51.278;22.550;2022-09-09T00:50:55;98958.25;;;15.08;70.14
72855;BME280;60991;51.278;22.550;2022-09-09T00:56:13;98949.00;;;14.95;70.71
72855;BME280;60991;51.278;22.550;2022-09-09T00:57:43;98943.91;;;14.94;70.49
72855;BME280;60991;51.278;22.550;2022-09-09T00:59:56;98942.03;;;14.99;70.63
72855;BME280;60991;51.278;22.550;2022-09-09T01:01:12;98947.38;;;14.99;70.46
72855;BME280;60991;51.278;22.550;2022-09-09T01:04:51;98949.53;;;14.92;70.65
72855;BME280;60991;51.278;22.550;2022-09-09T01:06:35;98950.84;;;15.00;70.40
72855;BME280;60991;51.278;22.550;2022-09-09T01:08:14;98949.78;;;14.96;69.83
72855;BME280;60991;51.278;22.550;2022-09-09T01:09:52;98951.13;;;14.98;70.43
72855;BME280;60991;51.278;22.550;2022-09-09T01:11:25;98944.94;;;15.03;70.32
72855;BME280;60991;51.278;22.550;2022-09-09T01:12:58;98944.16;;;15.02;70.10
72855;BME280;60991;51.278;22.550;2022-09-09T01:16:08;98949.50;;;14.97;70.37
72855;BME280;60991;51.278;22.550;2022-09-09T01:26:25;98942.63;;;14.86;70.25
72855;BME280;60991;51.278;22.550;2022-09-09T01:28:04;98942.94;;;14.79;70.37
72855;BME280;60991;51.278;22.550;2022-09-09T01:29:39;98931.47;;;14.74;70.53
72855;BME280;60991;51.278;22.550;2022-09-09T01:31:14;98936.53;;;14.75;70.41
72855;BME280;60991;51.278;22.550;2022-09-09T01:32:48;98934.41;;;14.72;70.52
72855;BME280;60991;51.278;22.550;2022-09-09T01:34:18;98934.13;;;14.79;70.34
72855;BME280;60991;51.278;22.550;2022-09-09T01:35:56;98930.91;;;14.82;70.34
72855;BME280;60991;51.278;22.550;2022-09-09T01:37:27;98926.91;;;14.79;70.26
72855;BME280;60991;51.278;22.550;2022-09-09T01:38:58;98924.50;;;14.78;70.43
72855;BME280;60991;51.278;22.550;2022-09-09T01:40:28;98929.06;;;14.77;70.46
72855;BME280;60991;51.278;22.550;2022-09-09T01:41:59;98936.28;;;14.72;70.89
72855;BME280;60991;51.278;22.550;2022-09-09T01:43:30;98937.91;;;14.68;71.15
72855;BME280;60991;51.278;22.550;2022-09-09T01:45:00;98940.31;;;14.69;70.96
72855;BME280;60991;51.278;22.550;2022-09-09T01:46:30;98941.66;;;14.67;70.92
72855;BME280;60991;51.278;22.550;2022-09-09T01:48:01;98941.44;;;14.58;71.46
72855;BME280;60991;51.278;22.550;2022-09-09T01:49:32;98942.22;;;14.59;71.04
72855;BME280;60991;51.278;22.550;2022-09-09T01:51:02;98936.09;;;14.58;71.22
72855;BME280;60991;51.278;22.550;2022-09-09T01:52:35;98946.25;;;14.56;71.75
72855;BME280;60991;51.278;22.550;2022-09-09T01:54:06;98937.97;;;14.52;71.62
72855;BME280;60991;51.278;22.550;2022-09-09T01:55:39;98932.63;;;14.52;71.40
72855;BME280;60991;51.278;22.550;2022-09-09T01:57:31;98919.06;;;14.44;71.91
72855;BME280;60991;51.278;22.550;2022-09-09T02:04:43;98921.19;;;14.47;71.52
72855;BME280;60991;51.278;22.550;2022-09-09T02:06:30;98916.88;;;14.51;71.51
72855;BME280;60991;51.278;22.550;2022-09-09T02:09:39;98906.19;;;14.51;71.55
72855;BME280;60991;51.278;22.550;2022-09-09T02:11:17;98902.44;;;14.52;71.78
72855;BME280;60991;51.278;22.550;2022-09-09T02:12:53;98902.44;;;14.57;71.53
72855;BME280;60991;51.278;22.550;2022-09-09T02:14:30;98896.84;;;14.53;71.48
72855;BME280;60991;51.278;22.550;2022-09-09T02:16:08;98897.91;;;14.52;71.87
72855;BME280;60991;51.278;22.550;2022-09-09T02:17:42;98898.16;;;14.56;71.84
72855;BME280;60991;51.278;22.550;2022-09-09T02:19:16;98893.34;;;14.58;71.76
72855;BME280;60991;51.278;22.550;2022-09-09T02:20:50;98893.63;;;14.57;71.70
72855;BME280;60991;51.278;22.550;2022-09-09T02:22:24;98884.88;;;14.46;72.15
72855;BME280;60991;51.278;22.550;2022-09-09T02:23:57;98880.84;;;14.48;71.78
72855;BME280;60991;51.278;22.550;2022-09-09T02:25:29;98872.28;;;14.51;71.72
72855;BME280;60991;51.278;22.550;2022-09-09T02:27:03;98877.34;;;14.53;71.82
72855;BME280;60991;51.278;22.550;2022-09-09T02:28:36;98873.34;;;14.50;71.70
72855;BME280;60991;51.278;22.550;2022-09-09T02:30:08;98878.41;;;14.52;71.95
72855;BME280;60991;51.278;22.550;2022-09-09T02:31:41;98877.09;;;14.49;71.92
72855;BME280;60991;51.278;22.550;2022-09-09T02:33:14;98882.69;;;14.53;71.87
72855;BME280;60991;51.278;22.550;2022-09-09T02:34:50;98890.97;;;14.51;71.79
72855;BME280;60991;51.278;22.550;2022-09-09T02:36:24;98899.53;;;14.48;71.82
72855;BME280;60991;51.278;22.550;2022-09-09T02:38:02;98895.50;;;14.51;71.81
72855;BME280;60991;51.278;22.550;2022-09-09T02:39:34;98893.13;;;14.49;71.82
72855;BME280;60991;51.278;22.550;2022-09-09T02:41:04;98889.09;;;14.52;72.03
72855;BME280;60991;51.278;22.550;2022-09-09T02:42:42;98883.47;;;14.53;71.54
72855;BME280;60991;51.278;22.550;2022-09-09T02:44:15;98884.56;;;14.52;71.90
72855;BME280;60991;51.278;22.550;2022-09-09T02:48:06;98881.63;;;14.49;72.09
72855;BME280;60991;51.278;22.550;2022-09-09T02:51:20;98886.44;;;14.52;71.76
72855;BME280;60991;51.278;22.550;2022-09-09T02:53:21;98896.03;;;14.53;71.67
72855;BME280;60991;51.278;22.550;2022-09-09T02:54:54;98882.69;;;14.53;71.91
72855;BME280;60991;51.278;22.550;2022-09-09T02:56:30;98880.28;;;14.57;71.41
72855;BME280;60991;51.278;22.550;2022-09-09T02:58:05;98885.06;;;14.60;71.63
72855;BME280;60991;51.278;22.550;2022-09-09T02:59:37;98893.06;;;14.60;71.44
72855;BME280;60991;51.278;22.550;2022-09-09T03:01:08;98897.63;;;14.59;71.72
72855;BME280;60991;51.278;22.550;2022-09-09T03:02:38;98898.41;;;14.60;71.40
72855;BME280;60991;51.278;22.550;2022-09-09T03:04:09;98898.69;;;14.58;71.41
72855;BME280;60991;51.278;22.550;2022-09-09T03:05:39;98892.03;;;14.55;71.81
72855;BME280;60991;51.278;22.550;2022-09-09T03:07:11;98890.94;;;14.57;71.61
72855;BME280;60991;51.278;22.550;2022-09-09T03:08:41;98896.03;;;14.53;71.66
72855;BME280;60991;51.278;22.550;2022-09-09T03:10:12;98895.25;;;14.52;71.50
72855;BME280;60991;51.278;22.550;2022-09-09T03:11:42;98898.69;;;14.58;71.41
72855;BME280;60991;51.278;22.550;2022-09-09T03:13:12;98893.38;;;14.53;71.33
72855;BME280;60991;51.278;22.550;2022-09-09T03:14:43;98898.19;;;14.51;71.78
72855;BME280;60991;51.278;22.550;2022-09-09T03:16:13;98904.84;;;14.59;71.36
72855;BME280;60991;51.278;22.550;2022-09-09T03:17:43;98908.06;;;14.55;71.34
72855;BME280;60991;51.278;22.550;2022-09-09T03:19:13;98910.19;;;14.59;71.44
72855;BME280;60991;51.278;22.550;2022-09-09T03:20:45;98900.28;;;14.59;71.47
72855;BME280;60991;51.278;22.550;2022-09-09T03:22:16;98904.56;;;14.60;71.79
72855;BME280;60991;51.278;22.550;2022-09-09T03:23:46;98903.22;;;14.63;71.71
72855;BME280;60991;51.278;22.550;2022-09-09T03:25:17;98914.69;;;14.63;71.28
72855;BME280;60991;51.278;22.550;2022-09-09T03:26:47;98910.69;;;14.66;71.24
72855;BME280;60991;51.278;22.550;2022-09-09T03:28:17;98913.06;;;14.67;71.10
72855;BME280;60991;51.278;22.550;2022-09-09T03:29:48;98914.63;;;14.73;70.97
72855;BME280;60991;51.278;22.550;2022-09-09T03:31:18;98915.72;;;14.72;70.89
72855;BME280;60991;51.278;22.550;2022-09-09T03:32:48;98909.53;;;14.77;71.08
72855;BME280;60991;51.278;22.550;2022-09-09T03:34:19;98907.94;;;14.81;70.68
72855;BME280;60991;51.278;22.550;2022-09-09T03:35:49;98906.34;;;14.75;70.85
72855;BME280;60991;51.278;22.550;2022-09-09T03:37:19;98911.97;;;14.73;70.70
72855;BME280;60991;51.278;22.550;2022-09-09T03:38:50;98915.72;;;14.72;70.98
72855;BME280;60991;51.278;22.550;2022-09-09T03:40:20;98915.72;;;14.72;70.86
72855;BME280;60991;51.278;22.550;2022-09-09T03:41:50;98911.41;;;14.76;70.79
72855;BME280;60991;51.278;22.550;2022-09-09T03:43:21;98920.50;;;14.75;71.05
72855;BME280;60991;51.278;22.550;2022-09-09T03:44:52;98910.38;;;14.72;71.14
72855;BME280;60991;51.278;22.550;2022-09-09T03:46:24;98911.41;;;14.76;70.70
72855;BME280;60991;51.278;22.550;2022-09-09T03:47:55;98916.50;;;14.73;70.81
72855;BME280;60991;51.278;22.550;2022-09-09T03:49:25;98910.09;;;14.74;71.02
72855;BME280;60991;51.278;22.550;2022-09-09T03:50:55;98909.53;;;14.77;70.88
72855;BME280;60991;51.278;22.550;2022-09-09T03:52:25;98911.41;;;14.76;70.75
72855;BME280;60991;51.278;22.550;2022-09-09T03:53:56;98907.41;;;14.74;70.62
72855;BME280;60991;51.278;22.550;2022-09-09T03:55:26;98898.59;;;14.73;70.84
72855;BME280;60991;51.278;22.550;2022-09-09T03:56:56;98902.06;;;14.74;70.81
72855;BME280;60991;51.278;22.550;2022-09-09T03:58:27;98899.94;;;14.71;71.10
72855;BME280;60991;51.278;22.550;2022-09-09T03:59:57;98898.59;;;14.73;70.79
72855;BME280;60991;51.278;22.550;2022-09-09T04:01:28;98901.81;;;14.70;71.01
72855;BME280;60991;51.278;22.550;2022-09-09T04:02:58;98901.81;;;14.70;71.08
72855;BME280;60991;51.278;22.550;2022-09-09T04:04:29;98898.63;;;14.68;71.37
72855;BME280;60991;51.278;22.550;2022-09-09T04:06:02;98906.09;;;14.71;71.15
72855;BME280;60991;51.278;22.550;2022-09-09T04:07:33;98909.09;;;14.65;71.45
72855;BME280;60991;51.278;22.550;2022-09-09T04:09:03;98906.91;;;14.67;70.99
72855;BME280;60991;51.278;22.550;2022-09-09T04:10:34;98913.31;;;14.71;71.03
72855;BME280;60991;51.278;22.550;2022-09-09T04:12:04;98921.06;;;14.72;71.20
72855;BME280;60991;51.278;22.550;2022-09-09T04:13:37;98929.34;;;14.71;71.24
72855;BME280;60991;51.278;22.550;2022-09-09T04:15:07;98930.47;;;14.65;71.28
72855;BME280;60991;51.278;22.550;2022-09-09T04:16:38;98925.66;;;14.62;71.18
72855;BME280;60991;51.278;22.550;2022-09-09T04:18:09;98922.44;;;14.65;71.17
72855;BME280;60991;51.278;22.550;2022-09-09T04:19:39;98919.19;;;14.68;70.94
72855;BME280;60991;51.278;22.550;2022-09-09T04:21:10;98919.72;;;14.70;70.83
72855;BME280;60991;51.278;22.550;2022-09-09T04:22:40;98918.94;;;14.69;70.93
72855;BME280;60991;51.278;22.550;2022-09-09T04:24:10;98921.31;;;14.71;71.00
72855;BME280;60991;51.278;22.550;2022-09-09T04:25:45;98918.38;;;14.72;70.89
72855;BME280;60991;51.278;22.550;2022-09-09T04:27:15;98923.44;;;14.74;71.01
72855;BME280;60991;51.278;22.550;2022-09-09T04:28:46;98910.63;;;14.76;71.05
72855;BME280;60991;51.278;22.550;2022-09-09T04:30:16;98914.88;;;14.77;70.70
72855;BME280;60991;51.278;22.550;2022-09-09T04:31:46;98910.09;;;14.74;70.94
72855;BME280;60991;51.278;22.550;2022-09-09T04:33:16;98914.09;;;14.71;70.89
72855;BME280;60991;51.278;22.550;2022-09-09T04:34:47;98913.03;;;14.72;70.87
72855;BME280;60991;51.278;22.550;2022-09-09T04:36:18;98913.28;;;14.76;70.76
72855;BME280;60991;51.278;22.550;2022-09-09T04:37:48;98921.28;;;14.81;70.72
72855;BME280;60991;51.278;22.550;2022-09-09T04:39:18;98914.34;;;14.80;70.77
72855;BME280;60991;51.278;22.550;2022-09-09T04:40:50;98913.28;;;14.81;70.66
72855;BME280;60991;51.278;22.550;2022-09-09T04:42:21;98914.06;;;14.81;70.61
72855;BME280;60991;51.278;22.550;2022-09-09T04:43:51;98914.59;;;14.83;70.61
72855;BME280;60991;51.278;22.550;2022-09-09T04:45:21;98919.69;;;14.80;70.55
72855;BME280;60991;51.278;22.550;2022-09-09T04:46:52;98918.88;;;14.79;70.58
72855;BME280;60991;51.278;22.550;2022-09-09T04:48:22;98921.56;;;14.79;70.67
72855;BME280;60991;51.278;22.550;2022-09-09T04:49:52;98919.19;;;14.73;70.96
72855;BME280;60991;51.278;22.550;2022-09-09T04:51:22;98916.25;;;14.74;70.94
72855;BME280;60991;51.278;22.550;2022-09-09T04:52:53;98921.56;;;14.79;70.64
72855;BME280;60991;51.278;22.550;2022-09-09T04:54:23;98922.63;;;14.78;70.65
72855;BME280;60991;51.278;22.550;2022-09-09T04:57:34;98920.47;;;14.80;70.90
72855;BME280;60991;51.278;22.550;2022-09-09T04:59:04;98922.59;;;14.83;70.70
72855;BME280;60991;51.278;22.550;2022-09-09T05:00:35;98913.22;;;14.86;70.69
72855;BME280;60991;51.278;22.550;2022-09-09T05:02:05;98916.16;;;14.84;71.31
72855;BME280;60991;51.278;22.550;2022-09-09T05:03:36;98919.63;;;14.85;71.02
72855;BME280;60991;51.278;22.550;2022-09-09T05:05:06;98923.41;;;14.84;70.77
72855;BME280;60991;51.278;22.550;2022-09-09T05:06:36;98924.19;;;14.84;70.75
72855;BME280;60991;51.278;22.550;2022-09-09T05:08:08;98933.31;;;14.83;70.85
72855;BME280;60991;51.278;22.550;2022-09-09T05:09:38;98924.97;;;14.85;70.89
72855;BME280;60991;51.278;22.550;2022-09-09T05:11:20;98930.06;;;14.86;70.81
72855;BME280;60991;51.278;22.550;2022-09-09T05:12:54;98930.84;;;14.87;71.23
72855;BME280;60991;51.278;22.550;2022-09-09T05:14:24;98927.38;;;14.86;71.38
72855;BME280;60991;51.278;22.550;2022-09-09T05:15:55;98933.53;;;14.87;71.36
72855;BME280;60991;51.278;22.550;2022-09-09T05:17:25;98928.44;;;14.85;71.06
72855;BME280;60991;51.278;22.550;2022-09-09T05:18:56;98933.25;;;14.88;70.80
72855;BME280;60991;51.278;22.550;2022-09-09T05:20:27;98928.44;;;14.85;71.08
72855;BME280;60991;51.278;22.550;2022-09-09T05:21:57;98929.25;;;14.86;71.04
72855;BME280;60991;51.278;22.550;2022-09-09T05:23:28;98930.06;;;14.86;70.97
72855;BME280;60991;51.278;22.550;2022-09-09T05:24:58;98921.47;;;14.89;70.87
72855;BME280;60991;51.278;22.550;2022-09-09T05:26:29;98934.59;;;14.86;70.96
72855;BME280;60991;51.278;22.550;2022-09-09T05:27:59;98935.44;;;14.81;71.12
72855;BME280;60991;51.278;22.550;2022-09-09T05:29:29;98933.03;;;14.80;71.35
72855;BME280;60991;51.278;22.550;2022-09-09T05:31:02;98935.97;;;14.83;70.95
72855;BME280;60991;51.278;22.550;2022-09-09T05:32:32;98929.31;;;14.81;71.04
72855;BME280;60991;51.278;22.550;2022-09-09T05:34:02;98929.03;;;14.82;71.26
72855;BME280;60991;51.278;22.550;2022-09-09T05:35:33;98925.31;;;14.73;71.68
72855;BME280;60991;51.278;22.550;2022-09-09T05:37:03;98927.72;;;14.75;71.67
72855;BME280;60991;51.278;22.550;2022-09-09T05:38:34;98929.06;;;14.77;71.50
72855;BME280;60991;51.278;22.550;2022-09-09T05:40:05;98924.25;;;14.74;71.60
72855;BME280;60991;51.278;22.550;2022-09-09T05:41:35;98935.81;;;14.65;72.14
72855;BME280;60991;51.278;22.550;2022-09-09T05:43:05;98939.28;;;14.65;72.23
72855;BME280;60991;51.278;22.550;2022-09-09T05:44:36;98941.16;;;14.65;72.29
72855;BME280;60991;51.278;22.550;2022-09-09T05:46:11;98940.06;;;14.66;71.83
72855;BME280;60991;51.278;22.550;2022-09-09T05:47:42;98933.09;;;14.70;71.73
72855;BME280;60991;51.278;22.550;2022-09-09T05:49:12;98932.25;;;14.74;71.68
72855;BME280;60991;51.278;22.550;2022-09-09T05:50:43;98938.94;;;14.77;71.79
72855;BME280;60991;51.278;22.550;2022-09-09T05:52:13;98934.38;;;14.82;71.73
72855;BME280;60991;51.278;22.550;2022-09-09T05:53:45;98939.44;;;14.84;71.37
72855;BME280;60991;51.278;22.550;2022-09-09T05:55:15;98934.66;;;14.81;71.55
72855;BME280;60991;51.278;22.550;2022-09-09T05:56:45;98934.66;;;14.81;71.42
72855;BME280;60991;51.278;22.550;2022-09-09T05:58:16;98940.78;;;14.81;71.36
72855;BME280;60991;51.278;22.550;2022-09-09T05:59:46;98933.59;;;14.77;71.72
72855;BME280;60991;51.278;22.550;2022-09-09T06:01:36;98951.25;;;14.68;72.03
72855;BME280;60991;51.278;22.550;2022-09-09T06:03:10;98948.59;;;14.68;72.08
72855;BME280;60991;51.278;22.550;2022-09-09T06:04:40;98944.34;;;14.62;72.26
72855;BME280;60991;51.278;22.550;2022-09-09T06:06:14;98953.97;;;14.63;72.24
72855;BME280;60991;51.278;22.550;2022-09-09T06:07:44;98959.84;;;14.60;72.23
72855;BME280;60991;51.278;22.550;2022-09-09T06:09:15;98955.06;;;14.57;72.50
72855;BME280;60991;51.278;22.550;2022-09-09T06:10:45;98954.25;;;14.56;72.33
72855;BME280;60991;51.278;22.550;2022-09-09T06:12:15;98955.59;;;14.53;72.28
72855;BME280;60991;51.278;22.550;2022-09-09T06:13:46;98959.88;;;14.54;72.46
72855;BME280;60991;51.278;22.550;2022-09-09T06:15:16;98953.72;;;14.54;72.66
72855;BME280;60991;51.278;22.550;2022-09-09T06:16:46;98959.06;;;14.54;72.50
72855;BME280;60991;51.278;22.550;2022-09-09T06:18:16;98954.78;;;14.58;72.65
72855;BME280;60991;51.278;22.550;2022-09-09T06:19:47;98953.72;;;14.54;72.72
72855;BME280;60991;51.278;22.550;2022-09-09T06:21:20;98962.28;;;14.56;72.53
72855;BME280;60991;51.278;22.550;2022-09-09T06:22:50;98967.06;;;14.59;72.34
72855;BME280;60991;51.278;22.550;2022-09-09T06:24:20;98954.25;;;14.56;72.93
72855;BME280;60991;51.278;22.550;2022-09-09T06:25:51;98962.81;;;14.53;72.92
72855;BME280;60991;51.278;22.550;2022-09-09T06:27:22;98962.81;;;14.58;72.37
72855;BME280;60991;51.278;22.550;2022-09-09T06:28:54;98959.31;;;14.63;72.59
72855;BME280;60991;51.278;22.550;2022-09-09T06:30:24;98973.47;;;14.63;72.68
72855;BME280;60991;51.278;22.550;2022-09-09T06:31:55;98964.13;;;14.61;72.83
72855;BME280;60991;51.278;22.550;2022-09-09T06:33:25;98966.00;;;14.55;73.17
72855;BME280;60991;51.278;22.550;2022-09-09T06:34:56;98963.06;;;14.62;72.76
72855;BME280;60991;51.278;22.550;2022-09-09T06:36:28;98964.88;;;14.66;73.07
72855;BME280;60991;51.278;22.550;2022-09-09T06:37:59;98968.66;;;14.65;72.63
72855;BME280;60991;51.278;22.550;2022-09-09T06:39:29;98972.91;;;14.66;72.85
72855;BME280;60991;51.278;22.550;2022-09-09T06:40:59;98967.56;;;14.66;72.86
72855;BME280;60991;51.278;22.550;2022-09-09T06:42:30;98969.47;;;14.66;72.60
72855;BME280;60991;51.278;22.550;2022-09-09T06:44:00;98969.41;;;14.71;72.82
72855;BME280;60991;51.278;22.550;2022-09-09T06:45:31;98972.09;;;14.71;72.59
72855;BME280;60991;51.278;22.550;2022-09-09T06:47:01;98973.69;;;14.72;72.51
72855;BME280;60991;51.278;22.550;2022-09-09T06:48:31;98981.44;;;14.73;72.57
72855;BME280;60991;51.278;22.550;2022-09-09T06:50:02;98976.63;;;14.70;72.37
72855;BME280;60991;51.278;22.550;2022-09-09T06:51:35;98983.03;;;14.79;72.38
72855;BME280;60991;51.278;22.550;2022-09-09T06:53:06;98985.97;;;14.73;72.38
72855;BME280;60991;51.278;22.550;2022-09-09T06:54:36;98983.31;;;14.68;72.49
72855;BME280;60991;51.278;22.550;2022-09-09T06:57:39;98988.94;;;14.66;72.46
72855;BME280;60991;51.278;22.550;2022-09-09T06:59:11;98987.63;;;14.64;72.77
72855;BME280;60991;51.278;22.550;2022-09-09T07:00:41;98994.84;;;14.63;72.51
72855;BME280;60991;51.278;22.550;2022-09-09T07:02:11;98990.31;;;14.64;72.46
72855;BME280;60991;51.278;22.550;2022-09-09T07:03:44;98993.78;;;14.64;72.43
72855;BME280;60991;51.278;22.550;2022-09-09T07:05:15;98990.03;;;14.65;72.31
72855;BME280;60991;51.278;22.550;2022-09-09T07:06:46;98996.47;;;14.59;72.42
72855;BME280;60991;51.278;22.550;2022-09-09T07:08:16;98990.59;;;14.57;72.24
72855;BME280;60991;51.278;22.550;2022-09-09T07:09:46;98995.41;;;14.55;72.31
72855;BME280;60991;51.278;22.550;2022-09-09T07:11:17;98998.34;;;14.53;72.35
72855;BME280;60991;51.278;22.550;2022-09-09T07:12:53;98993.53;;;14.50;72.29
72855;BME280;60991;51.278;22.550;2022-09-09T07:14:23;99007.94;;;14.54;72.53
72855;BME280;60991;51.278;22.550;2022-09-09T07:15:54;99004.22;;;14.55;72.11
72855;BME280;60991;51.278;22.550;2022-09-09T07:17:24;99001.00;;;14.59;71.99
72855;BME280;60991;51.278;22.550;2022-09-09T07:18:54;99013.56;;;14.53;72.23
72855;BME280;60991;51.278;22.550;2022-09-09T07:20:25;99014.09;;;14.50;72.72
72855;BME280;60991;51.278;22.550;2022-09-09T07:21:55;99018.91;;;14.48;72.51
72855;BME280;60991;51.278;22.550;2022-09-09T07:23:25;99018.66;;;14.49;72.51
72855;BME280;60991;51.278;22.550;2022-09-09T07:24:56;99012.22;;;14.50;72.46
72855;BME280;60991;51.278;22.550;2022-09-09T07:26:28;99013.28;;;14.54;72.41
72855;BME280;60991;51.278;22.550;2022-09-09T07:27:59;99015.44;;;14.52;72.40
72855;BME280;60991;51.278;22.550;2022-09-09T07:29:29;99016.22;;;14.58;72.22
72855;BME280;60991;51.278;22.550;2022-09-09T07:31:01;99023.69;;;14.61;72.07
72855;BME280;60991;51.278;22.550;2022-09-09T07:32:32;99022.63;;;14.62;72.19
72855;BME280;60991;51.278;22.550;2022-09-09T07:34:03;99029.03;;;14.61;72.23
72855;BME280;60991;51.278;22.550;2022-09-09T07:35:34;99026.91;;;14.63;72.26
72855;BME280;60991;51.278;22.550;2022-09-09T07:37:04;99031.97;;;14.65;72.27
72855;BME280;60991;51.278;22.550;2022-09-09T07:38:42;99036.75;;;14.68;72.14
72855;BME280;60991;51.278;22.550;2022-09-09T07:40:13;99026.31;;;14.71;71.91
72855;BME280;60991;51.278;22.550;2022-09-09T07:41:47;99026.84;;;14.73;71.99
72855;BME280;60991;51.278;22.550;2022-09-09T07:43:18;99024.72;;;14.75;71.90
72855;BME280;60991;51.278;22.550;2022-09-09T07:44:48;99033.53;;;14.76;72.03
72855;BME280;60991;51.278;22.550;2022-09-09T07:46:20;99034.06;;;14.73;72.18
72855;BME280;60991;51.278;22.550;2022-09-09T07:47:50;99030.84;;;14.76;72.07
72855;BME280;60991;51.278;22.550;2022-09-09T07:49:21;99028.47;;;14.74;72.19
72855;BME280;60991;51.278;22.550;2022-09-09T07:50:51;99033.53;;;14.76;72.31
72855;BME280;60991;51.278;22.550;2022-09-09T07:52:21;99039.41;;;14.78;72.26
72855;BME280;60991;51.278;22.550;2022-09-09T07:53:54;99040.19;;;14.83;72.66
72855;BME280;60991;51.278;22.550;2022-09-09T07:55:25;99038.06;;;14.80;72.69
72855;BME280;60991;51.278;22.550;2022-09-09T07:56:55;99048.22;;;14.83;72.48
72855;BME280;60991;51.278;22.550;2022-09-09T07:58:25;99048.22;;;14.83;72.36
72855;BME280;60991;51.278;22.550;2022-09-09T07:59:56;99044.97;;;14.86;72.61
72855;BME280;60991;51.278;22.550;2022-09-09T08:01:29;99048.72;;;14.85;72.51
72855;BME280;60991;51.278;22.550;2022-09-09T08:03:00;99052.75;;;14.83;72.98
72855;BME280;60991;51.278;22.550;2022-09-09T08:04:30;99047.94;;;14.80;73.02
72855;BME280;60991;51.278;22.550;2022-09-09T08:06:05;99047.94;;;14.80;72.91
72855;BME280;60991;51.278;22.550;2022-09-09T08:07:36;99049.03;;;14.79;72.71
72855;BME280;60991;51.278;22.550;2022-09-09T08:09:07;99049.81;;;14.79;72.94
72855;BME280;60991;51.278;22.550;2022-09-09T08:10:38;99054.38;;;14.79;73.06
72855;BME280;60991;51.278;22.550;2022-09-09T08:12:08;99054.38;;;14.79;73.35
72855;BME280;60991;51.278;22.550;2022-09-09T08:13:39;99054.91;;;14.81;73.43
72855;BME280;60991;51.278;22.550;2022-09-09T08:15:11;99060.25;;;14.81;73.09
72855;BME280;60991;51.278;22.550;2022-09-09T08:16:46;99062.88;;;14.86;73.14
72855;BME280;60991;51.278;22.550;2022-09-09T08:18:16;99055.44;;;14.73;73.75
72855;BME280;60991;51.278;22.550;2022-09-09T08:19:47;99061.31;;;14.75;73.75
72855;BME280;60991;51.278;22.550;2022-09-09T08:21:20;99058.91;;;14.73;73.72
72855;BME280;60991;51.278;22.550;2022-09-09T08:22:50;99058.38;;;14.76;73.72
72855;BME280;60991;51.278;22.550;2022-09-09T08:24:21;99064.81;;;14.70;73.93
72855;BME280;60991;51.278;22.550;2022-09-09T08:25:51;99068.53;;;14.69;74.00
72855;BME280;60991;51.278;22.550;2022-09-09T08:27:21;99073.63;;;14.71;73.99
72855;BME280;60991;51.278;22.550;2022-09-09T08:28:54;99071.47;;;14.73;74.02
72855;BME280;60991;51.278;22.550;2022-09-09T08:30:24;99064.53;;;14.67;74.25
72855;BME280;60991;51.278;22.550;2022-09-09T08:31:57;99073.66;;;14.66;74.29
72855;BME280;60991;51.278;22.550;2022-09-09T08:33:27;99069.06;;;14.66;74.72
72855;BME280;60991;51.278;22.550;2022-09-09T08:34:58;99066.94;;;14.68;74.62
72855;BME280;60991;51.278;22.550;2022-09-09T08:36:30;99068.53;;;14.69;74.45
72855;BME280;60991;51.278;22.550;2022-09-09T08:38:00;99067.19;;;14.72;74.34
72855;BME280;60991;51.278;22.550;2022-09-09T08:39:30;99065.34;;;14.72;74.40
72855;BME280;60991;51.278;22.550;2022-09-09T08:42:50;99068.00;;;14.67;74.27
72855;BME280;60991;51.278;22.550;2022-09-09T08:48:18;99069.06;;;14.66;75.27
72855;BME280;60991;51.278;22.550;2022-09-09T08:51:30;99065.31;;;14.77;74.67
72855;BME280;60991;51.278;22.550;2022-09-09T08:53:04;99062.66;;;14.82;74.68